Time;durP1;ratioP1;P1;durP2;ratioP2;P2;SDS_P1;SDS_P2;PMS_P1;PMS_P2;Temp;Humidity;BMP_temperature;BMP_pressure;BME280_temperature;BME280_humidity;BME280_pressure;Samples;Min_cycle;Max_cycle;Signal;HPM_P1;HPM_P2
2022/06/17 00:01:24;;;;;;;2.03;1.30;;;18.30;55.50;20.40;94523.00;;;;10358295;28;45245;-59
2022/06/17 00:06:49;;;;;;;1.38;1.25;;;18.30;55.40;20.40;94525.00;;;;10356811;28;45262;-60
2022/06/17 00:12:15;;;;;;;2.30;1.40;;;18.30;55.40;20.40;94525.00;;;;10357911;28;45156;-60
2022/06/17 00:17:37;;;;;;;1.52;1.20;;;18.30;55.30;20.40;94529.00;;;;10357003;28;45212;-60
2022/06/17 00:22:58;;;;;;;2.42;1.35;;;18.30;55.20;20.40;94524.00;;;;10357685;28;45252;-59
2022/06/17 00:28:21;;;;;;;1.98;1.30;;;18.30;55.20;20.40;94518.00;;;;10357262;28;45705;-60
2022/06/17 00:33:44;;;;;;;2.15;1.20;;;18.30;55.20;20.40;94514.00;;;;10351742;28;45167;-59
2022/06/17 00:39:10;;;;;;;3.05;1.20;;;18.30;55.10;20.40;94507.00;;;;10354021;28;45437;-60
2022/06/17 00:44:39;;;;;;;2.00;1.20;;;18.30;55.10;20.40;94532.00;;;;10355799;28;45390;-60
2022/06/17 00:50:09;;;;;;;1.80;1.38;;;18.30;55.00;20.40;94512.00;;;;10356717;28;45813;-60
2022/06/17 00:55:36;;;;;;;1.73;1.20;;;18.30;55.00;20.30;94519.00;;;;10356000;28;45147;-59
2022/06/17 01:01:01;;;;;;;1.83;1.20;;;18.30;55.00;20.40;94522.00;;;;10351170;28;45892;-59
2022/06/17 01:06:31;;;;;;;3.15;1.30;;;18.30;54.80;20.40;94541.00;;;;10352489;28;45148;-59
2022/06/17 01:11:52;;;;;;;1.67;1.20;;;18.30;54.80;20.40;94538.00;;;;10355477;28;45173;-59
2022/06/17 01:17:18;;;;;;;2.47;1.30;;;18.20;54.60;20.30;94538.00;;;;10354893;28;45723;-59
2022/06/17 01:22:41;;;;;;;1.25;1.02;;;18.20;54.70;20.30;94556.00;;;;10356081;28;45377;-59
2022/06/17 01:28:06;;;;;;;1.10;1.00;;;18.30;54.60;20.30;94539.00;;;;10355377;28;45135;-59
2022/06/17 01:33:30;;;;;;;1.45;1.08;;;18.30;54.50;20.30;94542.00;;;;10355380;28;45238;-59
2022/06/17 01:38:56;;;;;;;1.00;0.90;;;18.30;54.40;20.30;94542.00;;;;10355630;28;45304;-60
2022/06/17 01:44:21;;;;;;;1.10;1.00;;;18.20;54.30;20.30;94532.00;;;;10354181;28;45280;-61
2022/06/17 01:49:46;;;;;;;1.30;1.10;;;18.20;54.20;20.30;94541.00;;;;10354640;28;45792;-59
2022/06/17 01:55:12;;;;;;;2.00;1.13;;;18.30;54.20;20.30;94536.00;;;;10354411;28;45165;-60
2022/06/17 02:00:34;;;;;;;1.63;1.00;;;18.20;54.10;20.30;94526.00;;;;10354811;28;45781;-59
2022/06/17 02:06:05;;;;;;;1.30;0.80;;;18.20;54.00;20.30;94522.00;;;;10353978;28;45177;-60
2022/06/17 02:11:27;;;;;;;2.05;1.00;;;18.20;54.10;20.30;94532.00;;;;10354002;28;45247;-60
2022/06/17 02:16:52;;;;;;;1.20;0.80;;;18.20;54.00;20.30;94521.00;;;;10353168;28;45169;-59
2022/06/17 02:22:19;;;;;;;1.00;0.80;;;18.20;53.90;20.30;94524.00;;;;10353963;28;45288;-59
2022/06/17 02:27:44;;;;;;;1.20;0.80;;;18.20;54.00;20.30;94511.00;;;;10352523;28;45153;-60
2022/06/17 02:33:06;;;;;;;1.45;0.90;;;18.20;54.00;20.30;94510.00;;;;10353723;28;45772;-60
2022/06/17 02:38:32;;;;;;;1.23;0.80;;;18.20;53.70;20.30;94521.00;;;;10352980;28;45141;-59
2022/06/17 02:43:59;;;;;;;1.00;0.90;;;18.20;53.80;20.30;94528.00;;;;10353193;28;45698;-59
2022/06/17 02:49:24;;;;;;;;;;;18.20;53.70;20.30;94532.00;;;;10353671;28;45308;-61
2022/06/17 02:54:49;;;;;;;1.30;1.05;;;18.20;53.70;20.20;94522.00;;;;10352593;28;45222;-60
2022/06/17 03:00:17;;;;;;;1.55;0.90;;;18.20;53.60;20.20;94529.00;;;;10352814;28;45799;-60
2022/06/17 03:05:41;;;;;;;0.82;0.77;;;18.20;53.50;20.20;94515.00;;;;10352734;28;45839;-59
2022/06/17 03:11:03;;;;;;;1.42;0.90;;;18.20;53.60;20.20;94520.00;;;;10353167;28;45427;-61
2022/06/17 03:16:25;;;;;;;0.98;0.88;;;18.20;53.50;20.20;94528.00;;;;10352177;28;45130;-60
2022/06/17 03:21:47;;;;;;;1.55;0.80;;;18.10;53.40;20.20;94527.00;;;;10352433;28;45288;-59
2022/06/17 03:27:15;;;;;;;1.05;0.80;;;18.10;53.50;20.20;94523.00;;;;10351781;28;45290;-59
2022/06/17 03:32:41;;;;;;;1.50;0.77;;;18.10;53.30;20.20;94550.00;;;;10352554;28;45220;-60
2022/06/17 03:38:07;;;;;;;1.03;0.77;;;18.10;53.30;20.20;94549.00;;;;10351933;28;45706;-58
2022/06/17 03:48:49;;;;;;;0.73;0.65;;;18.10;53.10;20.20;94549.00;;;;10357231;28;45166;-68
2022/06/17 03:54:13;;;;;;;0.82;0.80;;;18.10;53.10;20.20;94558.00;;;;10358013;28;45816;-69
2022/06/17 03:59:35;;;;;;;0.73;0.73;;;18.10;53.10;20.20;94569.00;;;;10358590;28;45157;-68
2022/06/17 04:04:58;;;;;;;1.38;0.82;;;18.10;52.90;20.20;94579.00;;;;10358888;28;45669;-68
2022/06/17 04:10:24;;;;;;;0.73;0.70;;;18.10;53.00;20.20;94574.00;;;;10358252;28;45199;-68
2022/06/17 04:15:50;;;;;;;1.00;0.70;;;18.10;52.90;20.20;94585.00;;;;10357953;28;45108;-69
2022/06/17 04:21:13;;;;;;;1.47;0.70;;;18.10;52.80;20.20;94584.00;;;;10358169;28;45940;-68
2022/06/17 04:26:38;;;;;;;0.88;0.70;;;18.10;52.80;20.20;94585.00;;;;10357623;28;45160;-68
2022/06/17 04:32:05;;;;;;;0.82;0.75;;;18.10;52.80;20.20;94581.00;;;;10358184;28;45297;-68
2022/06/17 04:37:27;;;;;;;;;;;18.10;52.90;20.20;94586.00;;;;10357767;28;45227;-68
2022/06/17 04:42:49;;;;;;;1.38;0.75;;;18.10;52.90;20.20;94585.00;;;;10357570;28;44879;-68
2022/06/17 04:48:10;;;;;;;1.42;0.70;;;18.10;52.80;20.20;94588.00;;;;10356082;28;45139;-69
2022/06/17 04:53:34;;;;;;;2.08;0.70;;;18.10;52.90;20.20;94585.00;;;;10356533;28;45161;-68
2022/06/17 04:58:54;;;;;;;0.73;0.70;;;18.10;53.60;20.20;94587.00;;;;10356561;28;45154;-68
2022/06/17 05:04:15;;;;;;;1.05;0.77;;;18.10;52.90;20.20;94584.00;;;;10356560;28;45253;-67
2022/06/17 05:09:43;;;;;;;1.58;0.95;;;18.10;52.90;20.20;94605.00;;;;10356167;28;45757;-69
2022/06/17 05:15:07;;;;;;;0.70;0.68;;;18.10;52.90;20.20;94605.00;;;;10356315;28;45901;-68
2022/06/17 05:20:27;;;;;;;0.60;0.60;;;18.10;53.00;20.20;94590.00;;;;10356326;28;45122;-68
2022/06/17 05:25:50;;;;;;;1.10;0.80;;;18.10;53.10;20.20;94607.00;;;;10356246;28;45231;-68
2022/06/17 05:31:18;;;;;;;0.95;0.70;;;18.10;53.10;20.20;94605.00;;;;10355673;28;45222;-68
2022/06/17 05:36:38;;;;;;;1.27;0.60;;;18.10;53.20;20.20;94608.00;;;;10355607;28;45810;-68
2022/06/17 05:42:00;;;;;;;0.82;0.70;;;18.10;53.10;20.20;94620.00;;;;10356003;28;45872;-69
2022/06/17 05:47:20;;;;;;;1.65;0.75;;;18.10;53.10;20.20;94627.00;;;;10354517;28;45122;-68
2022/06/17 05:52:49;;;;;;;1.27;0.80;;;18.10;53.20;20.20;94629.00;;;;10355095;28;45301;-68
2022/06/17 05:58:12;;;;;;;1.35;0.88;;;18.10;53.20;20.20;94613.00;;;;10354690;28;45103;-68
2022/06/17 06:03:32;;;;;;;0.93;0.75;;;18.10;53.20;20.20;94637.00;;;;10353881;28;45197;-68
2022/06/17 06:08:53;;;;;;;1.60;0.98;;;18.10;53.20;20.20;94631.00;;;;10354261;28;45185;-68
2022/06/17 06:14:14;;;;;;;0.95;0.80;;;18.10;53.30;20.20;94649.00;;;;10354244;28;45225;-68
2022/06/17 06:19:35;;;;;;;1.35;0.80;;;18.10;53.40;20.20;94650.00;;;;10353352;28;45265;-68
2022/06/17 06:24:55;;;;;;;1.17;0.90;;;18.10;53.30;20.20;94646.00;;;;10353793;28;45204;-68
2022/06/17 06:30:29;;;;;;;1.40;0.80;;;18.10;53.30;20.20;94662.00;;;;10353839;28;45199;-68
2022/06/17 06:35:50;;;;;;;0.60;0.60;;;18.20;53.40;20.20;94663.00;;;;10353268;28;45814;-68
2022/06/17 06:41:11;;;;;;;1.15;0.90;;;18.10;53.40;20.20;94659.00;;;;10353651;28;45163;-68
2022/06/17 06:46:33;;;;;;;1.02;0.60;;;18.10;53.40;20.20;94669.00;;;;10352905;28;45100;-68
2022/06/17 06:51:54;;;;;;;1.52;0.90;;;18.10;53.40;20.20;94662.00;;;;10352690;28;45182;-68
2022/06/17 06:57:16;;;;;;;1.38;0.90;;;18.10;53.40;20.20;94669.00;;;;10352947;28;45301;-68
2022/06/17 07:02:37;;;;;;;0.80;0.70;;;18.20;53.50;20.20;94676.00;;;;10353583;28;45720;-68
2022/06/17 07:07:58;;;;;;;1.55;0.80;;;18.10;53.50;20.20;94664.00;;;;10352635;28;45674;-68
2022/06/17 07:13:21;;;;;;;1.05;0.70;;;18.10;53.50;20.20;94674.00;;;;10353678;28;45162;-68
2022/06/17 07:18:43;;;;;;;1.10;0.70;;;18.10;53.50;20.20;94677.00;;;;10358420;28;45105;-68
2022/06/17 07:24:04;;;;;;;1.13;0.70;;;18.10;53.50;20.20;94664.00;;;;10359984;28;45768;-68
2022/06/17 07:29:24;;;;;;;1.13;0.75;;;18.10;53.60;20.20;94660.00;;;;10359482;28;45202;-68
2022/06/17 07:34:47;;;;;;;1.05;0.60;;;18.20;53.60;20.20;94685.00;;;;10357786;28;45231;-68
2022/06/17 07:40:09;;;;;;;1.75;0.70;;;18.20;53.70;20.20;94682.00;;;;10359334;28;45870;-68
2022/06/17 07:45:32;;;;;;;1.13;0.80;;;18.10;53.70;20.20;94670.00;;;;10358614;28;45251;-68
2022/06/17 07:50:58;;;;;;;1.40;0.98;;;18.20;53.70;20.20;94665.00;;;;10359121;28;45101;-68
2022/06/17 07:56:20;;;;;;;1.20;1.00;;;18.10;53.70;20.20;94658.00;;;;10358915;28;45293;-68
2022/06/17 08:01:41;;;;;;;1.35;0.80;;;18.20;53.70;20.20;94656.00;;;;10359257;28;46084;-68
2022/06/17 08:07:05;;;;;;;1.63;0.80;;;18.10;53.70;20.20;94635.00;;;;10358825;28;45042;-68
2022/06/17 08:12:25;;;;;;;1.58;0.90;;;18.10;53.70;20.20;94666.00;;;;10359887;28;45869;-68
2022/06/17 08:17:46;;;;;;;1.98;0.88;;;18.20;53.70;20.20;94670.00;;;;10359716;28;45447;-68
2022/06/17 08:23:08;;;;;;;1.30;1.10;;;18.10;53.70;20.20;94673.00;;;;10360177;28;45227;-68
2022/06/17 08:28:29;;;;;;;0.80;0.73;;;18.20;53.70;20.20;94662.00;;;;10358778;28;45840;-68
2022/06/17 08:33:50;;;;;;;0.70;0.70;;;18.10;53.70;20.30;94656.00;;;;10359587;28;45736;-68
2022/06/17 08:39:14;;;;;;;1.20;0.77;;;18.20;53.60;20.30;94671.00;;;;10359056;28;45812;-68
2022/06/17 08:44:46;;;;;;;1.13;0.90;;;18.20;53.70;20.30;94679.00;;;;10358659;28;45172;-68
2022/06/17 08:50:45;;;;;;;1.98;1.20;;;18.20;53.90;20.30;94670.00;;;;10358750;28;45153;-68
2022/06/17 08:56:18;;;;;;;2.17;1.30;;;18.20;53.90;20.30;94677.00;;;;10358253;28;45883;-69
2022/06/17 09:01:48;;;;;;;2.45;1.20;;;18.20;53.90;20.30;94661.00;;;;10358817;28;45342;-68
2022/06/17 09:07:20;;;;;;;1.77;1.30;;;18.30;53.90;20.40;94669.00;;;;10358102;28;45114;-68
2022/06/17 09:13:00;;;;;;;1.80;1.30;;;18.30;53.90;20.40;94671.00;;;;10358545;28;45182;-69
2022/06/17 09:18:30;;;;;;;1.77;1.17;;;18.30;53.80;20.30;94670.00;;;;10357776;28;45138;-68
2022/06/17 09:23:52;;;;;;;1.73;1.27;;;18.30;53.80;20.30;94671.00;;;;10357901;28;45142;-68
2022/06/17 09:29:21;;;;;;;3.95;1.17;;;18.20;53.70;20.30;94672.00;;;;10357392;28;45132;-68
2022/06/17 09:34:48;;;;;;;2.10;1.40;;;18.20;53.80;20.30;94670.00;;;;10357399;28;45816;-68
2022/06/17 09:40:17;;;;;;;1.50;1.10;;;18.20;53.80;20.30;94663.00;;;;10357099;28;45245;-68
2022/06/17 09:45:45;;;;;;;1.63;1.10;;;18.20;54.50;20.30;94679.00;;;;10360067;28;45143;-67
2022/06/17 09:51:14;;;;;;;2.15;1.25;;;18.20;53.80;20.30;94652.00;;;;10364649;28;45216;-67
2022/06/17 09:56:41;;;;;;;1.58;1.13;;;18.20;53.80;20.30;94668.00;;;;10364797;28;45199;-67
2022/06/17 10:02:21;;;;;;;2.95;1.33;;;18.20;53.70;20.30;94657.00;;;;10364137;28;45802;-67
2022/06/17 10:07:50;;;;;;;1.90;1.13;;;18.20;53.70;20.30;94652.00;;;;10364816;28;45896;-67
2022/06/17 10:13:21;;;;;;;1.20;1.10;;;18.50;53.70;20.30;94676.00;;;;10364917;28;45842;-66
2022/06/17 10:19:00;;;;;;;1.30;1.00;;;18.20;53.50;20.30;94658.00;;;;10362943;28;45103;-66
2022/06/17 10:24:31;;;;;;;1.83;1.15;;;18.20;53.40;20.30;94651.00;;;;10364193;28;45122;-67
2022/06/17 10:30:04;;;;;;;2.00;1.20;;;18.20;53.30;20.30;94672.00;;;;10362620;28;45411;-67
2022/06/17 10:35:30;;;;;;;1.55;1.10;;;18.40;53.30;20.30;94663.00;;;;10363365;28;45307;-66
2022/06/17 10:40:51;;;;;;;1.90;1.10;;;18.20;53.20;20.30;94645.00;;;;10363220;28;45289;-66
2022/06/17 10:46:16;;;;;;;2.10;1.10;;;18.40;53.20;20.30;94650.00;;;;10363300;28;45261;-67
2022/06/17 10:51:39;;;;;;;1.80;1.23;;;18.20;53.00;20.30;94638.00;;;;10363155;28;45210;-66
2022/06/17 10:57:06;;;;;;;2.28;1.23;;;18.20;52.90;20.30;94640.00;;;;10363496;28;45900;-67
2022/06/17 11:02:30;;;;;;;1.33;1.10;;;18.20;52.90;20.30;94639.00;;;;10362889;28;45206;-67
2022/06/17 11:07:53;;;;;;;1.70;0.95;;;18.20;52.70;20.30;94629.00;;;;10363055;28;45047;-67
2022/06/17 11:13:15;;;;;;;2.45;1.00;;;18.20;52.90;20.30;94641.00;;;;10362867;28;45208;-66
2022/06/17 11:18:36;;;;;;;1.83;1.10;;;18.20;52.90;20.40;94653.00;;;;10362721;28;45287;-67
2022/06/17 11:24:00;;;;;;;1.85;0.93;;;18.10;52.70;20.40;94656.00;;;;10361782;28;45258;-66
2022/06/17 11:29:23;;;;;;;2.10;1.13;;;18.30;52.90;20.40;94641.00;;;;10360928;28;45275;-66
2022/06/17 11:34:51;;;;;;;1.92;1.30;;;18.50;53.10;20.40;94635.00;;;;10361723;28;45389;-67
2022/06/17 11:40:16;;;;;;;1.77;1.00;;;18.30;53.30;20.30;94617.00;;;;10362421;28;45150;-67
2022/06/17 11:45:42;;;;;;;1.83;0.90;;;18.30;53.60;20.30;94620.00;;;;10361458;28;45976;-67
2022/06/17 11:51:08;;;;;;;1.13;0.98;;;18.30;53.70;20.30;94622.00;;;;10362325;28;45172;-67
2022/06/17 11:56:35;;;;;;;1.58;1.13;;;18.30;53.80;20.30;94620.00;;;;10362018;28;45540;-66
2022/06/17 12:02:06;;;;;;;1.40;1.13;;;18.30;53.90;20.30;94589.00;;;;10364311;28;45315;-66
2022/06/17 12:07:46;;;;;;;2.60;1.15;;;18.30;53.80;20.40;94605.00;;;;10368086;28;45163;-67
2022/06/17 12:13:20;;;;;;;1.45;1.02;;;18.20;53.90;20.40;94602.00;;;;10368465;28;45201;-67
2022/06/17 12:18:45;;;;;;;1.10;1.00;;;18.30;53.90;20.40;94628.00;;;;10368146;28;45158;-67
2022/06/17 12:24:13;;;;;;;2.25;1.00;;;18.30;53.90;20.40;94614.00;;;;10368534;28;45867;-66
2022/06/17 12:29:48;;;;;;;2.42;1.10;;;18.30;53.90;20.40;94620.00;;;;10367951;28;45872;-67
2022/06/17 12:35:15;;;;;;;3.05;1.00;;;18.30;54.60;20.40;94584.00;;;;10367426;28;45267;-66
2022/06/17 12:40:40;;;;;;;1.20;0.97;;;18.30;53.80;20.40;94595.00;;;;10367975;28;44968;-67
2022/06/17 12:46:04;;;;;;;1.08;0.90;;;18.40;53.80;20.40;94600.00;;;;10366739;28;45276;-67
2022/06/17 12:57:18;;;;;;;1.75;1.05;;;18.40;53.60;20.40;94582.00;;;;10366856;28;45145;-67
2022/06/17 13:03:06;;;;;;;1.50;0.90;;;18.40;53.50;20.40;94593.00;;;;10367543;28;44960;-67
2022/06/17 13:08:39;;;;;;;1.45;1.00;;;18.40;53.40;20.40;94594.00;;;;10366644;28;45262;-67
2022/06/17 13:14:17;;;;;;;2.85;1.02;;;18.40;53.50;20.40;94589.00;;;;10366078;28;45261;-67
2022/06/17 13:19:47;;;;;;;1.10;1.00;;;18.40;53.40;20.40;94593.00;;;;10366668;28;45288;-67
2022/06/17 13:25:22;;;;;;;1.73;0.90;;;18.40;53.50;20.40;94583.00;;;;10367095;28;45212;-66
2022/06/17 13:30:47;;;;;;;1.88;0.93;;;18.40;53.50;20.50;94584.00;;;;10365921;28;45913;-67
2022/06/17 13:36:16;;;;;;;1.00;0.80;;;18.40;53.50;20.50;94580.00;;;;10365867;28;45319;-67
2022/06/17 13:41:42;;;;;;;2.80;1.05;;;18.40;53.60;20.50;94564.00;;;;10366115;28;45155;-67
2022/06/17 13:47:13;;;;;;;1.67;1.00;;;18.60;53.70;20.50;94581.00;;;;10364989;28;45198;-66
2022/06/17 13:52:43;;;;;;;1.90;1.02;;;18.50;53.80;20.50;94570.00;;;;10365191;28;45776;-67
2022/06/17 13:58:20;;;;;;;1.60;0.90;;;18.40;53.70;20.50;94564.00;;;;10365584;28;45127;-67
2022/06/17 14:04:08;;;;;;;2.10;1.00;;;18.40;53.70;20.50;94539.00;;;;10364726;28;45061;-67
2022/06/17 14:09:36;;;;;;;1.83;1.00;;;18.50;53.70;20.50;94560.00;;;;10363974;28;45169;-66
2022/06/17 14:15:06;;;;;;;1.00;0.90;;;18.70;53.80;20.50;94557.00;;;;10364326;28;45508;-67
2022/06/17 14:20:39;;;;;;;1.42;0.68;;;18.50;53.80;20.50;94556.00;;;;10364022;28;45264;-67
2022/06/17 14:26:02;;;;;;;1.40;0.90;;;18.50;53.80;20.50;94535.00;;;;10362920;28;45195;-66
2022/06/17 14:31:35;;;;;;;1.00;0.70;;;18.50;53.80;20.50;94552.00;;;;10361250;28;45256;-68
2022/06/17 14:37:03;;;;;;;1.85;0.80;;;18.80;54.00;20.50;94543.00;;;;10364891;28;45179;-67
2022/06/17 14:42:47;;;;;;;1.70;0.90;;;18.50;53.90;20.60;94563.00;;;;10366187;28;46100;-67
2022/06/17 14:48:24;;;;;;;1.08;0.80;;;18.60;54.00;20.60;94572.00;;;;10363576;28;45254;-67
2022/06/17 14:53:50;;;;;;;1.17;0.85;;;18.60;54.10;20.60;94572.00;;;;10362626;28;45380;-67
2022/06/17 14:59:27;;;;;;;1.55;0.95;;;18.60;54.00;20.60;94541.00;;;;10362904;28;45212;-67
2022/06/17 15:04:51;;;;;;;;;;;18.60;54.00;20.60;94550.00;;;;10363084;28;45160;-66
2022/06/17 15:10:21;;;;;;;1.35;0.90;;;18.60;54.20;20.60;94546.00;;;;10362221;28;45211;-67
2022/06/17 15:15:46;;;;;;;2.00;0.98;;;18.60;54.20;20.70;94551.00;;;;10363151;28;45146;-67
2022/06/17 15:21:21;;;;;;;1.23;0.80;;;18.70;54.20;20.70;94550.00;;;;10363420;28;45476;-67
2022/06/17 15:26:52;;;;;;;1.40;1.00;;;18.70;54.00;20.70;94560.00;;;;10360737;28;45169;-67
2022/06/17 15:32:17;;;;;;;1.70;1.10;;;18.70;54.00;20.80;94553.00;;;;10359752;28;45098;-67
2022/06/17 15:37:41;;;;;;;1.67;0.93;;;18.80;54.00;20.80;94524.00;;;;10365088;28;45674;-66
2022/06/17 15:43:11;;;;;;;1.38;0.90;;;18.70;53.90;20.80;94549.00;;;;10366543;28;45262;-67
2022/06/17 15:48:33;;;;;;;1.27;1.08;;;18.80;53.80;20.80;94546.00;;;;10413559;22;45185;-59
2022/06/17 15:53:54;;;;;;;2.50;1.20;;;18.80;53.70;20.80;94541.00;;;;10399636;28;45774;-59
2022/06/17 15:59:24;;;;;;;1.23;0.90;;;18.80;53.60;20.80;94554.00;;;;10359947;28;45247;-59
2022/06/17 16:04:46;;;;;;;2.80;1.20;;;18.80;53.50;20.80;94553.00;;;;10358939;28;45405;-59
2022/06/17 16:10:26;;;;;;;1.60;0.90;;;18.80;53.50;20.80;94550.00;;;;10358268;28;45305;-59
2022/06/17 16:15:57;;;;;;;1.27;1.00;;;18.80;53.40;20.80;94566.00;;;;10357248;28;45252;-59
2022/06/17 16:21:37;;;;;;;0.80;0.70;;;18.80;53.40;20.90;94570.00;;;;10355991;28;45153;-59
2022/06/17 16:27:01;;;;;;;1.63;0.98;;;18.80;53.30;20.90;94576.00;;;;10357607;28;45884;-59
2022/06/17 16:32:25;;;;;;;2.20;0.95;;;18.90;53.30;20.90;94569.00;;;;10356657;28;45229;-59
2022/06/17 16:37:54;;;;;;;2.83;1.00;;;18.90;53.30;21.00;94566.00;;;;10357345;28;45348;-59
2022/06/17 16:49:14;;;;;;;2.03;1.13;;;18.90;53.10;20.90;94557.00;;;;10354528;28;45520;-60
2022/06/17 16:54:38;;;;;;;1.02;0.90;;;18.90;53.10;21.00;94559.00;;;;10357300;28;45248;-59
2022/06/17 17:00:04;;;;;;;1.33;1.00;;;18.90;53.00;20.90;94568.00;;;;10356374;28;45174;-60
2022/06/17 17:05:25;;;;;;;3.47;1.00;;;18.90;53.00;20.90;94545.00;;;;10356714;28;45752;-60
2022/06/17 17:10:50;;;;;;;1.15;1.00;;;19.00;53.00;21.00;94558.00;;;;10356950;28;45710;-60
2022/06/17 17:16:13;;;;;;;1.25;1.15;;;18.90;52.90;20.90;94571.00;;;;10356478;28;45740;-60
2022/06/17 17:21:38;;;;;;;2.90;1.20;;;19.00;53.00;20.90;94562.00;;;;10356719;28;45154;-60
2022/06/17 17:27:01;;;;;;;2.17;1.10;;;18.90;52.90;20.90;94573.00;;;;10355101;28;45214;-59
2022/06/17 17:32:22;;;;;;;1.77;1.10;;;19.00;53.10;21.00;94572.00;;;;10347536;28;45697;-60
2022/06/17 17:37:43;;;;;;;1.15;0.90;;;18.90;53.00;21.00;94569.00;;;;10355186;28;45193;-60
2022/06/17 17:43:06;;;;;;;1.75;0.90;;;18.90;53.10;20.90;94567.00;;;;10356053;28;45784;-60
2022/06/17 17:48:27;;;;;;;1.17;1.08;;;18.90;53.10;20.90;94561.00;;;;10354563;28;45244;-60
2022/06/17 17:53:49;;;;;;;1.35;0.90;;;18.90;53.20;20.90;94585.00;;;;10349725;28;45810;-59
2022/06/17 17:59:18;;;;;;;1.92;1.10;;;18.90;53.30;20.90;94572.00;;;;10352511;28;45817;-60
2022/06/17 18:04:39;;;;;;;1.67;1.05;;;18.90;53.30;20.90;94569.00;;;;10350712;28;45424;-59
2022/06/17 18:09:59;;;;;;;2.65;1.00;;;18.90;53.30;20.90;94582.00;;;;10353308;28;45209;-60
2022/06/17 18:15:25;;;;;;;1.27;0.95;;;18.90;53.40;20.90;94571.00;;;;10327946;28;45186;-59
2022/06/17 18:20:46;;;;;;;1.60;1.00;;;18.80;53.40;20.80;94585.00;;;;10349500;28;45244;-59
2022/06/17 18:26:07;;;;;;;1.30;1.10;;;18.80;53.50;20.80;94572.00;;;;10354025;28;45198;-59
2022/06/17 18:31:31;;;;;;;1.52;0.98;;;18.80;53.50;20.80;94582.00;;;;10354516;28;45805;-60
2022/06/17 18:36:52;;;;;;;1.00;0.90;;;18.80;53.50;20.80;94583.00;;;;10351936;28;45280;-61
2022/06/17 18:47:55;;;;;;;0.80;0.80;;;18.70;53.60;20.70;94582.00;;;;10351029;28;45228;-58
2022/06/17 18:53:19;;;;;;;1.10;0.90;;;18.70;53.70;20.70;94568.00;;;;10352185;28;45196;-59
2022/06/17 18:58:39;;;;;;;2.00;1.20;;;18.70;53.80;20.70;94577.00;;;;10349411;28;45256;-59
2022/06/17 19:04:02;;;;;;;2.15;1.10;;;18.70;54.00;20.70;94579.00;;;;10349712;28;46103;-60
2022/06/17 19:20:47;;;;;;;2.40;1.20;;;18.70;54.90;20.70;94579.00;;;;10357061;28;45224;-59
2022/06/17 19:26:07;;;;;;;1.67;1.30;;;18.70;55.60;20.70;94566.00;;;;10357851;28;45178;-59
2022/06/17 19:31:32;;;;;;;1.88;1.38;;;18.60;55.00;20.70;94575.00;;;;10358656;28;45241;-58
2022/06/17 19:36:58;;;;;;;2.08;1.58;;;18.70;55.20;20.70;94598.00;;;;10319241;28;45876;-59
2022/06/17 19:42:20;;;;;;;2.65;1.20;;;18.60;55.00;20.70;94594.00;;;;10327402;28;45185;-60
2022/06/17 19:47:41;;;;;;;2.45;1.40;;;18.60;55.00;20.70;94597.00;;;;10359473;28;45126;-62
2022/06/17 19:53:03;;;;;;;2.42;1.40;;;18.60;55.00;20.70;94587.00;;;;10358821;28;46169;-60
2022/06/17 19:58:24;;;;;;;1.88;1.20;;;18.60;54.90;20.70;94593.00;;;;10353578;28;45148;-60
2022/06/17 20:03:45;;;;;;;1.45;1.35;;;18.60;54.90;20.70;94602.00;;;;10357877;28;45256;-60
2022/06/17 20:09:09;;;;;;;1.88;1.38;;;18.60;54.80;20.70;94614.00;;;;10358159;28;45285;-60
2022/06/17 20:14:34;;;;;;;3.90;1.63;;;18.60;54.60;20.60;94624.00;;;;10358615;28;45760;-60
2022/06/17 20:19:55;;;;;;;1.65;1.45;;;18.60;54.10;20.60;94618.00;;;;10356761;28;45872;-60
2022/06/17 20:25:19;;;;;;;2.50;1.60;;;18.50;53.90;20.60;94609.00;;;;10352888;28;45232;-60
2022/06/17 20:30:39;;;;;;;3.17;1.50;;;18.50;53.70;20.60;94604.00;;;;10358121;28;45435;-60
2022/06/17 20:36:00;;;;;;;2.53;1.40;;;18.60;53.60;20.60;94617.00;;;;10358053;28;45190;-59
2022/06/17 20:41:22;;;;;;;1.52;1.20;;;18.50;53.40;20.60;94621.00;;;;10358037;28;45156;-61
2022/06/17 20:52:22;;;;;;;1.98;1.70;;;18.50;52.80;20.50;94626.00;;;;10357296;28;45209;-60
2022/06/17 21:03:25;;;;;;;3.55;1.48;;;18.40;52.50;20.50;94625.00;;;;10356645;28;45177;-59
2022/06/17 21:08:49;;;;;;;2.58;1.30;;;18.40;52.00;20.40;94624.00;;;;10356039;28;45327;-60
2022/06/17 21:14:14;;;;;;;1.80;1.38;;;18.40;52.00;20.40;94613.00;;;;10356864;28;45810;-60
2022/06/17 21:19:36;;;;;;;2.45;1.25;;;18.40;52.00;20.40;94598.00;;;;10355461;28;45901;-60
2022/06/17 21:24:57;;;;;;;1.42;1.20;;;18.40;52.00;20.40;94612.00;;;;10355884;28;45286;-60
2022/06/17 21:30:23;;;;;;;1.73;1.20;;;18.40;51.80;20.40;94610.00;;;;10355304;28;45231;-61
2022/06/17 21:35:47;;;;;;;1.55;1.30;;;18.40;51.90;20.30;94603.00;;;;10354861;28;45267;-60
2022/06/17 21:41:14;;;;;;;1.35;1.20;;;18.30;51.70;20.30;94598.00;;;;10355766;28;45359;-59
2022/06/17 21:46:36;;;;;;;;;;;18.30;51.70;20.30;94596.00;;;;10356347;28;45530;-60
2022/06/17 21:51:59;;;;;;;2.05;1.20;;;18.30;51.40;20.30;94604.00;;;;10356250;28;45185;-60
2022/06/17 21:57:21;;;;;;;2.30;1.20;;;18.30;51.50;20.30;94601.00;;;;10355562;28;45189;-59
2022/06/17 22:02:43;;;;;;;3.20;1.38;;;18.20;51.30;20.30;94600.00;;;;10355572;28;45262;-61
2022/06/17 22:08:05;;;;;;;1.90;1.27;;;18.30;51.20;20.20;94607.00;;;;10354419;28;45684;-60
2022/06/17 22:13:26;;;;;;;2.53;1.35;;;18.20;51.00;20.30;94603.00;;;;10354692;28;45158;-60
2022/06/17 22:18:48;;;;;;;1.45;1.20;;;18.20;51.10;20.20;94592.00;;;;10354320;28;45303;-59
2022/06/17 22:24:12;;;;;;;1.20;1.00;;;18.20;50.80;20.30;94598.00;;;;10354470;28;45129;-61
2022/06/17 22:29:36;;;;;;;2.20;1.30;;;18.20;50.70;20.20;94591.00;;;;10354299;28;45313;-59
2022/06/17 22:34:59;;;;;;;2.97;1.30;;;18.20;50.70;20.20;94579.00;;;;10354781;28;45756;-60
2022/06/17 22:40:23;;;;;;;1.77;1.30;;;18.20;50.60;20.20;94608.00;;;;10354110;28;45208;-60
2022/06/17 22:45:49;;;;;;;1.80;1.10;;;18.20;50.60;20.20;94595.00;;;;10352892;28;45065;-60
2022/06/17 22:51:18;;;;;;;1.77;1.20;;;18.10;50.60;20.20;94609.00;;;;10354065;28;45271;-60
2022/06/17 22:56:39;;;;;;;1.17;1.08;;;18.20;50.40;20.20;94591.00;;;;10352924;28;45685;-60
2022/06/17 23:02:00;;;;;;;2.28;0.90;;;18.10;50.40;20.10;94589.00;;;;10353001;28;45208;-60
2022/06/17 23:07:24;;;;;;;1.77;1.20;;;18.10;50.50;20.20;94593.00;;;;10352873;28;46126;-61
2022/06/17 23:12:45;;;;;;;1.27;1.13;;;18.20;50.20;20.10;94595.00;;;;10353145;28;45246;-60
2022/06/17 23:23:50;;;;;;;1.63;1.20;;;18.10;50.00;20.10;94605.00;;;;10353577;28;45249;-59
2022/06/17 23:29:11;;;;;;;1.33;0.98;;;18.10;50.10;20.10;94580.00;;;;10352625;28;45114;-60
2022/06/17 23:34:32;;;;;;;1.70;1.00;;;18.10;49.90;20.10;94594.00;;;;10352582;28;45126;-61
2022/06/17 23:39:54;;;;;;;1.05;0.82;;;18.10;49.90;20.10;94587.00;;;;10351703;28;45196;-60
2022/06/17 23:45:18;;;;;;;1.48;1.00;;;18.10;49.80;20.10;94576.00;;;;10352552;28;45722;-60
2022/06/17 23:50:42;;;;;;;1.10;1.00;;;18.10;49.60;20.10;94570.00;;;;10352920;28;45196;-61
2022/06/17 23:56:06;;;;;;;1.45;1.05;;;18.10;49.70;20.10;94587.00;;;;10353820;28;45881;-61
